Serenity — WDF3354 — position and weather

sailwx.info

Track history (hours):
 
Tides and Currents Weather Stations Pressure Air Temp Water Temp Dewpoint Dewpoint Depression Visibility Wind Speed Wind Dir Waves Ship Positions

Serenity

More information available from US FCC via Universal Licensing System and Coast Guard Vessel Documentation Center.

Last reported at 2014-Jun-27 13:33 UTC. Time now 2014-Jul-24 20:00 UTC.
Position N 54°19' W 130°30'.
Warning: this ship's position is 27 days out of date.

Length 14 m.

Type: Pleasure craft. MMSI: 367438910.

Date/timePositionNaut miles runAvg speedWind from/ knotsBaromVisibWave heightAir tempDewpointWater temp
2014-Jun-27 13:33N 54°19' W 130°30'6 5.7
2014-Jun-27 12:25N 54°19' W 130°19'0 0.0
2014-Jun-27 11:25N 54°19' W 130°19'0 0.0
2014-Jun-27 10:31N 54°19' W 130°19'0 0.0
2014-Jun-27 09:31N 54°19' W 130°19'0 0.0
2014-Jun-27 08:28N 54°19' W 130°19'0 0.0
2014-Jun-27 07:31N 54°19' W 130°19'0 0.0
2014-Jun-27 06:31N 54°19' W 130°19'0 0.0
2014-Jun-27 05:31N 54°19' W 130°19'0 0.0
2014-Jun-27 04:31N 54°19' W 130°19'0 0.0
2014-Jun-27 03:31N 54°19' W 130°19'0 0.0
2014-Jun-27 02:25N 54°19' W 130°19'0 0.0
2014-Jun-27 01:28N 54°19' W 130°19'0 0.0
2014-Jun-27 00:31N 54°19' W 130°19'0 0.0
2014-Jun-26 23:31N 54°19' W 130°19'0 0.0
2014-Jun-26 22:31N 54°19' W 130°19'  
2014-Jun-24 17:09N 52°12' W 128°09'3 4.9
2014-Jun-24 16:32N 52°10' W 128°06'1 1.0
2014-Jun-24 15:19N 52°09' W 128°05'0 0.0
2014-Jun-24 14:31N 52°09' W 128°05'0 0.0
2014-Jun-24 13:25N 52°09' W 128°05'0 0.0
2014-Jun-24 12:31N 52°09' W 128°05'0 0.0
2014-Jun-24 11:31N 52°09' W 128°05'0 0.0
2014-Jun-24 10:31N 52°09' W 128°05'0 0.0
2014-Jun-24 09:31N 52°09' W 128°05'0 0.0
2014-Jun-24 08:19N 52°09' W 128°05'0 0.0
2014-Jun-24 07:31N 52°09' W 128°05'0 0.0
2014-Jun-24 06:26N 52°09' W 128°05'0 0.0
2014-Jun-24 05:31N 52°09' W 128°05'0 0.0
2014-Jun-24 04:31N 52°09' W 128°05'0 0.0
2014-Jun-24 03:25N 52°09' W 128°05'0 0.0
2014-Jun-24 02:14N 52°09' W 128°05'0 0.0
2014-Jun-24 01:08N 52°09' W 128°05'0 0.0
2014-Jun-24 00:26N 52°09' W 128°05'0 0.0
2014-Jun-23 23:14N 52°09' W 128°05'0 0.0
2014-Jun-23 22:26N 52°09' W 128°05'38 2.2
2014-Jun-23 05:07N 51°32' W 127°56'0 0.0
2014-Jun-23 03:25N 51°32' W 127°56'35 3.9
2014-Jun-22 18:30N 50°58' W 127°44'  
2014-Jun-17 18:33N 49°18' W 123°17'6 5.8
2014-Jun-17 17:33N 49°16' W 123°08'1 1.1
2014-Jun-17 16:33N 49°16' W 123°06'1 0.9
2014-Jun-17 15:26N 49°16' W 123°08'0 0.0
2014-Jun-17 14:32N 49°16' W 123°08'  
Track history (hours):
 
Tides and Currents Weather Stations Pressure Air Temp Water Temp Dewpoint Dewpoint Depression Visibility Wind Speed Wind Dir Waves Ship Positions

Serenity

More information available from US FCC via Universal Licensing System and Coast Guard Vessel Documentation Center.

Last reported at 2014-Jun-27 13:33 UTC. Time now 2014-Jul-24 20:00 UTC.
Position N 54°19' W 130°30'.
Warning: this ship's position is 27 days out of date.

Length 14 m.

Type: Pleasure craft. MMSI: 367438910.

Date/timePositionNaut miles runAvg speedWind from/ knotsBaromVisibWave heightAir tempDewpointWater temp
2014-Jun-27 13:33N 54°19' W 130°30'6 5.7
2014-Jun-27 12:25N 54°19' W 130°19'0 0.0
2014-Jun-27 11:25N 54°19' W 130°19'0 0.0
2014-Jun-27 10:31N 54°19' W 130°19'0 0.0
2014-Jun-27 09:31N 54°19' W 130°19'0 0.0
2014-Jun-27 08:28N 54°19' W 130°19'0 0.0
2014-Jun-27 07:31N 54°19' W 130°19'0 0.0
2014-Jun-27 06:31N 54°19' W 130°19'0 0.0
2014-Jun-27 05:31N 54°19' W 130°19'0 0.0
2014-Jun-27 04:31N 54°19' W 130°19'0 0.0
2014-Jun-27 03:31N 54°19' W 130°19'0 0.0
2014-Jun-27 02:25N 54°19' W 130°19'0 0.0
2014-Jun-27 01:28N 54°19' W 130°19'0 0.0
2014-Jun-27 00:31N 54°19' W 130°19'0 0.0
2014-Jun-26 23:31N 54°19' W 130°19'0 0.0
2014-Jun-26 22:31N 54°19' W 130°19'  
2014-Jun-24 17:09N 52°12' W 128°09'3 4.9
2014-Jun-24 16:32N 52°10' W 128°06'1 1.0
2014-Jun-24 15:19N 52°09' W 128°05'0 0.0
2014-Jun-24 14:31N 52°09' W 128°05'0 0.0
2014-Jun-24 13:25N 52°09' W 128°05'0 0.0
2014-Jun-24 12:31N 52°09' W 128°05'0 0.0
2014-Jun-24 11:31N 52°09' W 128°05'0 0.0
2014-Jun-24 10:31N 52°09' W 128°05'0 0.0
2014-Jun-24 09:31N 52°09' W 128°05'0 0.0
2014-Jun-24 08:19N 52°09' W 128°05'0 0.0
2014-Jun-24 07:31N 52°09' W 128°05'0 0.0
2014-Jun-24 06:26N 52°09' W 128°05'0 0.0
2014-Jun-24 05:31N 52°09' W 128°05'0 0.0
2014-Jun-24 04:31N 52°09' W 128°05'0 0.0
2014-Jun-24 03:25N 52°09' W 128°05'0 0.0
2014-Jun-24 02:14N 52°09' W 128°05'0 0.0
2014-Jun-24 01:08N 52°09' W 128°05'0 0.0
2014-Jun-24 00:26N 52°09' W 128°05'0 0.0
2014-Jun-23 23:14N 52°09' W 128°05'0 0.0
2014-Jun-23 22:26N 52°09' W 128°05'38 2.2
2014-Jun-23 05:07N 51°32' W 127°56'0 0.0
2014-Jun-23 03:25N 51°32' W 127°56'35 3.9
2014-Jun-22 18:30N 50°58' W 127°44'  
2014-Jun-17 18:33N 49°18' W 123°17'6 5.8
2014-Jun-17 17:33N 49°16' W 123°08'1 1.1
2014-Jun-17 16:33N 49°16' W 123°06'1 0.9
2014-Jun-17 15:26N 49°16' W 123°08'0 0.0
2014-Jun-17 14:32N 49°16' W 123°08'  

Dump ship's entire track history